sensor_id;sensor_type;location;lat;lon;timestamp;temperature;humidity
69546;SHT31;56766;52.260;20.746;2022-12-07T00:01:42;2.46;87.18
69546;SHT31;56766;52.260;20.746;2022-12-07T00:04:13;2.48;87.18
69546;SHT31;56766;52.260;20.746;2022-12-07T00:06:43;2.49;87.12
69546;SHT31;56766;52.260;20.746;2022-12-07T00:09:14;2.47;87.06
69546;SHT31;56766;52.260;20.746;2022-12-07T00:11:44;2.48;87.15
69546;SHT31;56766;52.260;20.746;2022-12-07T00:14:16;2.46;87.16
69546;SHT31;56766;52.260;20.746;2022-12-07T00:16:44;2.48;87.20
69546;SHT31;56766;52.260;20.746;2022-12-07T00:19:13;2.50;87.24
69546;SHT31;56766;52.260;20.746;2022-12-07T00:21:41;2.54;87.28
69546;SHT31;56766;52.260;20.746;2022-12-07T00:24:10;2.56;87.17
69546;SHT31;56766;52.260;20.746;2022-12-07T00:26:40;2.55;87.10
69546;SHT31;56766;52.260;20.746;2022-12-07T00:29:16;2.55;87.10
69546;SHT31;56766;52.260;20.746;2022-12-07T00:31:45;2.55;87.15
69546;SHT31;56766;52.260;20.746;2022-12-07T00:34:18;2.54;87.23
69546;SHT31;56766;52.260;20.746;2022-12-07T00:36:47;2.56;87.40
69546;SHT31;56766;52.260;20.746;2022-12-07T00:39:15;2.61;87.41
69546;SHT31;56766;52.260;20.746;2022-12-07T00:41:42;2.61;87.31
69546;SHT31;56766;52.260;20.746;2022-12-07T00:44:08;2.61;87.32
69546;SHT31;56766;52.260;20.746;2022-12-07T00:46:35;2.62;87.32
69546;SHT31;56766;52.260;20.746;2022-12-07T00:49:02;2.66;87.42
69546;SHT31;56766;52.260;20.746;2022-12-07T00:51:29;2.63;87.25
69546;SHT31;56766;52.260;20.746;2022-12-07T00:53:56;2.60;87.20
69546;SHT31;56766;52.260;20.746;2022-12-07T00:56:26;2.59;87.32
69546;SHT31;56766;52.260;20.746;2022-12-07T00:59:00;2.60;87.31
69546;SHT31;56766;52.260;20.746;2022-12-07T01:01:31;2.61;87.32
69546;SHT31;56766;52.260;20.746;2022-12-07T01:04:01;2.62;87.33
69546;SHT31;56766;52.260;20.746;2022-12-07T01:06:29;2.64;87.41
69546;SHT31;56766;52.260;20.746;2022-12-07T01:08:56;2.68;87.42
69546;SHT31;56766;52.260;20.746;2022-12-07T01:11:26;2.71;87.42
69546;SHT31;56766;52.260;20.746;2022-12-07T01:13:57;2.74;87.44
69546;SHT31;56766;52.260;20.746;2022-12-07T01:16:27;2.79;87.49
69546;SHT31;56766;52.260;20.746;2022-12-07T01:18:57;2.81;87.45
69546;SHT31;56766;52.260;20.746;2022-12-07T01:21:31;2.84;87.34
69546;SHT31;56766;52.260;20.746;2022-12-07T01:24:02;2.85;87.39
69546;SHT31;56766;52.260;20.746;2022-12-07T01:26:31;2.87;87.40
69546;SHT31;56766;52.260;20.746;2022-12-07T01:28:58;2.88;87.40
69546;SHT31;56766;52.260;20.746;2022-12-07T01:31:28;2.89;87.37
69546;SHT31;56766;52.260;20.746;2022-12-07T01:33:58;2.92;87.46
69546;SHT31;56766;52.260;20.746;2022-12-07T01:36:28;2.93;87.45
69546;SHT31;56766;52.260;20.746;2022-12-07T01:39:00;2.93;87.42
69546;SHT31;56766;52.260;20.746;2022-12-07T01:41:32;2.93;87.47
69546;SHT31;56766;52.260;20.746;2022-12-07T01:46:49;2.94;87.53
69546;SHT31;56766;52.260;20.746;2022-12-07T01:49:28;2.93;87.64
69546;SHT31;56766;52.260;20.746;2022-12-07T01:52:20;2.96;87.61
69546;SHT31;56766;52.260;20.746;2022-12-07T01:54:57;2.92;87.67
69546;SHT31;56766;52.260;20.746;2022-12-07T01:57:30;2.92;87.71
69546;SHT31;56766;52.260;20.746;2022-12-07T02:00:03;2.92;87.76
69546;SHT31;56766;52.260;20.746;2022-12-07T02:02:43;2.93;87.85
69546;SHT31;56766;52.260;20.746;2022-12-07T02:05:14;2.97;87.97
69546;SHT31;56766;52.260;20.746;2022-12-07T02:07:42;3.01;87.91
69546;SHT31;56766;52.260;20.746;2022-12-07T02:10:21;3.02;87.87
69546;SHT31;56766;52.260;20.746;2022-12-07T02:13:02;3.06;87.86
69546;SHT31;56766;52.260;20.746;2022-12-07T02:15:52;3.08;87.89
69546;SHT31;56766;52.260;20.746;2022-12-07T02:18:45;3.08;87.86
69546;SHT31;56766;52.260;20.746;2022-12-07T02:21:46;3.10;87.83
69546;SHT31;56766;52.260;20.746;2022-12-07T02:30:03;2.97;88.00
69546;SHT31;56766;52.260;20.746;2022-12-07T02:32:54;2.93;88.04
69546;SHT31;56766;52.260;20.746;2022-12-07T02:35:32;2.90;88.16
69546;SHT31;56766;52.260;20.746;2022-12-07T02:38:40;2.88;88.18
69546;SHT31;56766;52.260;20.746;2022-12-07T02:41:24;2.87;88.26
69546;SHT31;56766;52.260;20.746;2022-12-07T02:44:12;2.85;88.31
69546;SHT31;56766;52.260;20.746;2022-12-07T02:46:47;2.88;88.44
69546;SHT31;56766;52.260;20.746;2022-12-07T02:49:22;2.91;88.41
69546;SHT31;56766;52.260;20.746;2022-12-07T02:51:52;2.90;88.42
69546;SHT31;56766;52.260;20.746;2022-12-07T02:54:21;2.90;88.44
69546;SHT31;56766;52.260;20.746;2022-12-07T03:02:44;2.84;88.49
69546;SHT31;56766;52.260;20.746;2022-12-07T03:14:30;2.93;88.50
69546;SHT31;56766;52.260;20.746;2022-12-07T03:17:01;2.97;88.56
69546;SHT31;56766;52.260;20.746;2022-12-07T03:19:36;2.95;88.41
69546;SHT31;56766;52.260;20.746;2022-12-07T03:22:10;2.89;88.44
69546;SHT31;56766;52.260;20.746;2022-12-07T03:24:49;2.87;88.52
69546;SHT31;56766;52.260;20.746;2022-12-07T03:27:25;2.89;88.58
69546;SHT31;56766;52.260;20.746;2022-12-07T03:30:16;2.91;88.58
69546;SHT31;56766;52.260;20.746;2022-12-07T03:32:59;2.88;88.50
69546;SHT31;56766;52.260;20.746;2022-12-07T03:35:35;2.89;88.65
69546;SHT31;56766;52.260;20.746;2022-12-07T03:38:17;2.92;88.67
69546;SHT31;56766;52.260;20.746;2022-12-07T03:41:07;2.91;88.58
69546;SHT31;56766;52.260;20.746;2022-12-07T03:43:41;2.90;88.51
69546;SHT31;56766;52.260;20.746;2022-12-07T03:46:26;2.89;88.53
69546;SHT31;56766;52.260;20.746;2022-12-07T03:54:28;2.89;88.69
69546;SHT31;56766;52.260;20.746;2022-12-07T03:57:01;2.90;88.56
69546;SHT31;56766;52.260;20.746;2022-12-07T03:59:30;2.86;88.52
69546;SHT31;56766;52.260;20.746;2022-12-07T04:02:02;2.84;88.56
69546;SHT31;56766;52.260;20.746;2022-12-07T04:04:33;2.84;88.66
69546;SHT31;56766;52.260;20.746;2022-12-07T04:07:00;2.87;88.70
69546;SHT31;56766;52.260;20.746;2022-12-07T04:09:27;2.84;88.67
69546;SHT31;56766;52.260;20.746;2022-12-07T04:11:54;2.85;88.69
69546;SHT31;56766;52.260;20.746;2022-12-07T04:14:20;2.87;88.74
69546;SHT31;56766;52.260;20.746;2022-12-07T04:16:50;2.88;88.65
69546;SHT31;56766;52.260;20.746;2022-12-07T04:19:21;2.89;88.68
69546;SHT31;56766;52.260;20.746;2022-12-07T04:21:50;2.90;88.70
69546;SHT31;56766;52.260;20.746;2022-12-07T04:24:17;2.90;88.69
69546;SHT31;56766;52.260;20.746;2022-12-07T04:26:46;2.88;88.58
69546;SHT31;56766;52.260;20.746;2022-12-07T04:29:14;2.85;88.60
69546;SHT31;56766;52.260;20.746;2022-12-07T04:31:43;2.83;88.63
69546;SHT31;56766;52.260;20.746;2022-12-07T04:34:12;2.85;88.69
69546;SHT31;56766;52.260;20.746;2022-12-07T04:36:40;2.88;88.78
69546;SHT31;56766;52.260;20.746;2022-12-07T04:39:17;2.84;88.56
69546;SHT31;56766;52.260;20.746;2022-12-07T04:41:55;2.80;88.62
69546;SHT31;56766;52.260;20.746;2022-12-07T04:44:24;2.78;88.63
69546;SHT31;56766;52.260;20.746;2022-12-07T04:46:53;2.79;88.67
69546;SHT31;56766;52.260;20.746;2022-12-07T04:49:21;2.83;88.74
69546;SHT31;56766;52.260;20.746;2022-12-07T04:51:48;2.83;88.61
69546;SHT31;56766;52.260;20.746;2022-12-07T04:54:15;2.79;88.54
69546;SHT31;56766;52.260;20.746;2022-12-07T04:56:43;2.80;88.67
69546;SHT31;56766;52.260;20.746;2022-12-07T04:59:11;2.82;88.63
69546;SHT31;56766;52.260;20.746;2022-12-07T05:01:40;2.82;88.52
69546;SHT31;56766;52.260;20.746;2022-12-07T05:04:07;2.75;88.52
69546;SHT31;56766;52.260;20.746;2022-12-07T05:06:35;2.74;88.64
69546;SHT31;56766;52.260;20.746;2022-12-07T05:09:03;2.75;88.65
69546;SHT31;56766;52.260;20.746;2022-12-07T05:11:30;2.73;88.54
69546;SHT31;56766;52.260;20.746;2022-12-07T05:16:42;2.76;88.62
69546;SHT31;56766;52.260;20.746;2022-12-07T05:19:10;2.76;88.57
69546;SHT31;56766;52.260;20.746;2022-12-07T05:21:38;2.73;88.49
69546;SHT31;56766;52.260;20.746;2022-12-07T05:24:06;2.72;88.52
69546;SHT31;56766;52.260;20.746;2022-12-07T05:26:34;2.68;88.45
69546;SHT31;56766;52.260;20.746;2022-12-07T05:29:00;2.64;88.49
69546;SHT31;56766;52.260;20.746;2022-12-07T05:31:28;2.62;88.56
69546;SHT31;56766;52.260;20.746;2022-12-07T05:33:54;2.62;88.58
69546;SHT31;56766;52.260;20.746;2022-12-07T05:36:22;2.59;88.60
69546;SHT31;56766;52.260;20.746;2022-12-07T05:38:49;2.56;88.50
69546;SHT31;56766;52.260;20.746;2022-12-07T05:41:18;2.54;88.50
69546;SHT31;56766;52.260;20.746;2022-12-07T05:44:04;2.54;88.55
69546;SHT31;56766;52.260;20.746;2022-12-07T05:46:31;2.56;88.54
69546;SHT31;56766;52.260;20.746;2022-12-07T05:48:59;2.54;88.46
69546;SHT31;56766;52.260;20.746;2022-12-07T05:51:26;2.51;88.40
69546;SHT31;56766;52.260;20.746;2022-12-07T05:53:53;2.51;88.44
69546;SHT31;56766;52.260;20.746;2022-12-07T05:56:20;2.47;88.38
69546;SHT31;56766;52.260;20.746;2022-12-07T05:58:47;2.45;88.40
69546;SHT31;56766;52.260;20.746;2022-12-07T06:01:32;2.45;88.41
69546;SHT31;56766;52.260;20.746;2022-12-07T06:03:59;2.44;88.40
69546;SHT31;56766;52.260;20.746;2022-12-07T06:06:26;2.39;88.29
69546;SHT31;56766;52.260;20.746;2022-12-07T06:08:52;2.34;88.29
69546;SHT31;56766;52.260;20.746;2022-12-07T06:11:19;2.30;88.30
69546;SHT31;56766;52.260;20.746;2022-12-07T06:14:04;2.24;88.31
69546;SHT31;56766;52.260;20.746;2022-12-07T06:16:31;2.21;88.43
69546;SHT31;56766;52.260;20.746;2022-12-07T06:18:58;2.22;88.53
69546;SHT31;56766;52.260;20.746;2022-12-07T06:21:25;2.22;88.46
69546;SHT31;56766;52.260;20.746;2022-12-07T06:23:53;2.19;88.48
69546;SHT31;56766;52.260;20.746;2022-12-07T06:26:21;2.14;88.40
69546;SHT31;56766;52.260;20.746;2022-12-07T06:28:48;2.12;88.48
69546;SHT31;56766;52.260;20.746;2022-12-07T06:31:15;2.14;88.62
69546;SHT31;56766;52.260;20.746;2022-12-07T06:33:42;2.14;88.62
69546;SHT31;56766;52.260;20.746;2022-12-07T06:36:09;2.14;88.62
69546;SHT31;56766;52.260;20.746;2022-12-07T06:38:36;2.15;88.60
69546;SHT31;56766;52.260;20.746;2022-12-07T06:41:04;2.13;88.56
69546;SHT31;56766;52.260;20.746;2022-12-07T06:43:31;2.14;88.60
69546;SHT31;56766;52.260;20.746;2022-12-07T06:45:57;2.16;88.63
69546;SHT31;56766;52.260;20.746;2022-12-07T06:48:24;2.17;88.69
69546;SHT31;56766;52.260;20.746;2022-12-07T06:50:51;2.17;88.68
69546;SHT31;56766;52.260;20.746;2022-12-07T06:53:18;2.20;88.63
69546;SHT31;56766;52.260;20.746;2022-12-07T06:55:44;2.19;88.53
69546;SHT31;56766;52.260;20.746;2022-12-07T06:58:11;2.19;88.61
69546;SHT31;56766;52.260;20.746;2022-12-07T07:00:38;2.21;88.67
69546;SHT31;56766;52.260;20.746;2022-12-07T07:03:04;2.21;88.63
69546;SHT31;56766;52.260;20.746;2022-12-07T07:05:31;2.22;88.64
69546;SHT31;56766;52.260;20.746;2022-12-07T07:07:58;2.23;88.56
69546;SHT31;56766;52.260;20.746;2022-12-07T07:10:24;2.21;88.56
69546;SHT31;56766;52.260;20.746;2022-12-07T07:12:51;2.21;88.53
69546;SHT31;56766;52.260;20.746;2022-12-07T07:15:18;2.18;88.50
69546;SHT31;56766;52.260;20.746;2022-12-07T07:17:45;2.17;88.57
69546;SHT31;56766;52.260;20.746;2022-12-07T07:20:12;2.17;88.57
69546;SHT31;56766;52.260;20.746;2022-12-07T07:22:39;2.17;88.62
69546;SHT31;56766;52.260;20.746;2022-12-07T07:25:06;2.17;88.62
69546;SHT31;56766;52.260;20.746;2022-12-07T07:27:33;2.17;88.68
69546;SHT31;56766;52.260;20.746;2022-12-07T07:29:59;2.22;88.72
69546;SHT31;56766;52.260;20.746;2022-12-07T07:32:26;2.23;88.73
69546;SHT31;56766;52.260;20.746;2022-12-07T07:34:53;2.25;88.74
69546;SHT31;56766;52.260;20.746;2022-12-07T07:37:19;2.29;88.75
69546;SHT31;56766;52.260;20.746;2022-12-07T07:39:46;2.29;88.63
69546;SHT31;56766;52.260;20.746;2022-12-07T07:42:13;2.30;88.63
69546;SHT31;56766;52.260;20.746;2022-12-07T07:44:40;2.32;88.57
69546;SHT31;56766;52.260;20.746;2022-12-07T07:47:06;2.32;88.63
69546;SHT31;56766;52.260;20.746;2022-12-07T07:49:33;2.35;88.71
69546;SHT31;56766;52.260;20.746;2022-12-07T07:52:00;2.40;88.69
69546;SHT31;56766;52.260;20.746;2022-12-07T07:54:26;2.39;88.59
69546;SHT31;56766;52.260;20.746;2022-12-07T07:56:53;2.39;88.67
69546;SHT31;56766;52.260;20.746;2022-12-07T07:59:20;2.45;88.75
69546;SHT31;56766;52.260;20.746;2022-12-07T08:01:46;2.46;88.70
69546;SHT31;56766;52.260;20.746;2022-12-07T08:04:13;2.46;88.60
69546;SHT31;56766;52.260;20.746;2022-12-07T08:06:40;2.46;88.62
69546;SHT31;56766;52.260;20.746;2022-12-07T08:09:09;2.46;88.73
69546;SHT31;56766;52.260;20.746;2022-12-07T08:11:35;2.48;88.75
69546;SHT31;56766;52.260;20.746;2022-12-07T08:14:03;2.50;88.70
69546;SHT31;56766;52.260;20.746;2022-12-07T08:16:30;2.51;88.73
69546;SHT31;56766;52.260;20.746;2022-12-07T08:18:56;2.54;88.80
69546;SHT31;56766;52.260;20.746;2022-12-07T08:21:23;2.57;88.78
69546;SHT31;56766;52.260;20.746;2022-12-07T08:23:50;2.55;88.70
69546;SHT31;56766;52.260;20.746;2022-12-07T08:26:17;2.57;88.79
69546;SHT31;56766;52.260;20.746;2022-12-07T08:28:44;2.59;88.71
69546;SHT31;56766;52.260;20.746;2022-12-07T08:31:15;2.60;88.72
69546;SHT31;56766;52.260;20.746;2022-12-07T08:33:46;2.63;88.77
69546;SHT31;56766;52.260;20.746;2022-12-07T08:36:14;2.70;88.87
69546;SHT31;56766;52.260;20.746;2022-12-07T08:38:42;2.75;88.80
69546;SHT31;56766;52.260;20.746;2022-12-07T08:41:09;2.81;88.85
69546;SHT31;56766;52.260;20.746;2022-12-07T08:43:36;2.90;88.90
69546;SHT31;56766;52.260;20.746;2022-12-07T08:46:08;2.98;88.86
69546;SHT31;56766;52.260;20.746;2022-12-07T08:48:40;3.09;88.89
69546;SHT31;56766;52.260;20.746;2022-12-07T08:51:25;3.19;88.80
69546;SHT31;56766;52.260;20.746;2022-12-07T08:53:54;3.24;88.69
69546;SHT31;56766;52.260;20.746;2022-12-07T08:56:25;3.25;88.52
69546;SHT31;56766;52.260;20.746;2022-12-07T08:58:52;3.23;88.42
69546;SHT31;56766;52.260;20.746;2022-12-07T09:01:19;3.23;88.51
69546;SHT31;56766;52.260;20.746;2022-12-07T09:03:46;3.29;88.55
69546;SHT31;56766;52.260;20.746;2022-12-07T09:06:12;3.32;88.44
69546;SHT31;56766;52.260;20.746;2022-12-07T09:08:46;3.33;88.40
69546;SHT31;56766;52.260;20.746;2022-12-07T09:11:15;3.35;88.40
69546;SHT31;56766;52.260;20.746;2022-12-07T09:13:42;3.41;88.40
69546;SHT31;56766;52.260;20.746;2022-12-07T09:16:08;3.45;88.36
69546;SHT31;56766;52.260;20.746;2022-12-07T09:18:35;3.48;88.34
69546;SHT31;56766;52.260;20.746;2022-12-07T09:21:02;3.50;88.30
69546;SHT31;56766;52.260;20.746;2022-12-07T09:23:28;3.52;88.22
69546;SHT31;56766;52.260;20.746;2022-12-07T09:26:01;3.53;88.25
69546;SHT31;56766;52.260;20.746;2022-12-07T09:28:31;3.58;88.27
69546;SHT31;56766;52.260;20.746;2022-12-07T09:30:58;3.63;88.30
69546;SHT31;56766;52.260;20.746;2022-12-07T09:33:24;3.67;88.24
69546;SHT31;56766;52.260;20.746;2022-12-07T09:35:52;3.67;88.00
69546;SHT31;56766;52.260;20.746;2022-12-07T09:38:20;3.67;87.93
69546;SHT31;56766;52.260;20.746;2022-12-07T09:40:48;3.65;87.76
69546;SHT31;56766;52.260;20.746;2022-12-07T09:43:20;3.66;87.79
69546;SHT31;56766;52.260;20.746;2022-12-07T09:45:52;3.65;87.57
69546;SHT31;56766;52.260;20.746;2022-12-07T09:48:31;3.66;87.54
69546;SHT31;56766;52.260;20.746;2022-12-07T09:51:00;3.64;87.37
69546;SHT31;56766;52.260;20.746;2022-12-07T09:53:32;3.63;87.37
69546;SHT31;56766;52.260;20.746;2022-12-07T09:56:01;3.64;87.46
69546;SHT31;56766;52.260;20.746;2022-12-07T09:58:31;3.65;87.37
69546;SHT31;56766;52.260;20.746;2022-12-07T10:01:09;3.63;87.33
69546;SHT31;56766;52.260;20.746;2022-12-07T10:03:48;3.65;87.34
69546;SHT31;56766;52.260;20.746;2022-12-07T10:06:18;3.69;87.52
69546;SHT31;56766;52.260;20.746;2022-12-07T10:08:45;3.70;87.47
69546;SHT31;56766;52.260;20.746;2022-12-07T10:11:12;3.73;87.49
69546;SHT31;56766;52.260;20.746;2022-12-07T10:13:52;3.74;87.39
69546;SHT31;56766;52.260;20.746;2022-12-07T10:16:41;3.74;87.30
69546;SHT31;56766;52.260;20.746;2022-12-07T10:19:32;3.76;87.33
69546;SHT31;56766;52.260;20.746;2022-12-07T10:22:01;3.77;87.22
69546;SHT31;56766;52.260;20.746;2022-12-07T10:24:36;3.81;87.36
69546;SHT31;56766;52.260;20.746;2022-12-07T10:27:18;3.86;87.28
69546;SHT31;56766;52.260;20.746;2022-12-07T10:29:50;3.89;87.21
69546;SHT31;56766;52.260;20.746;2022-12-07T10:34:44;3.94;87.20
69546;SHT31;56766;52.260;20.746;2022-12-07T10:39:48;4.00;87.09
69546;SHT31;56766;52.260;20.746;2022-12-07T10:45:13;4.11;87.12
69546;SHT31;56766;52.260;20.746;2022-12-07T10:53:40;4.24;86.83
69546;SHT31;56766;52.260;20.746;2022-12-07T10:59:23;4.29;86.80
69546;SHT31;56766;52.260;20.746;2022-12-07T11:02:31;4.32;86.77
69546;SHT31;56766;52.260;20.746;2022-12-07T11:11:18;4.23;86.50
69546;SHT31;56766;52.260;20.746;2022-12-07T11:14:22;4.22;86.66
69546;SHT31;56766;52.260;20.746;2022-12-07T11:16:59;4.19;86.57
69546;SHT31;56766;52.260;20.746;2022-12-07T11:22:26;4.12;86.57
69546;SHT31;56766;52.260;20.746;2022-12-07T11:25:30;4.11;86.51
69546;SHT31;56766;52.260;20.746;2022-12-07T11:28:26;4.15;86.77
69546;SHT31;56766;52.260;20.746;2022-12-07T11:31:12;4.24;86.81
69546;SHT31;56766;52.260;20.746;2022-12-07T11:34:23;4.38;86.80
69546;SHT31;56766;52.260;20.746;2022-12-07T11:37:14;4.48;86.58
69546;SHT31;56766;52.260;20.746;2022-12-07T11:39:52;4.51;86.49
69546;SHT31;56766;52.260;20.746;2022-12-07T11:42:39;4.58;86.65
69546;SHT31;56766;52.260;20.746;2022-12-07T11:45:22;4.58;86.37
69546;SHT31;56766;52.260;20.746;2022-12-07T11:50:48;4.57;86.36
69546;SHT31;56766;52.260;20.746;2022-12-07T11:53:26;4.59;86.35
69546;SHT31;56766;52.260;20.746;2022-12-07T11:56:00;4.53;86.16
69546;SHT31;56766;52.260;20.746;2022-12-07T12:02:16;4.34;86.21
69546;SHT31;56766;52.260;20.746;2022-12-07T12:05:16;4.22;86.33
69546;SHT31;56766;52.260;20.746;2022-12-07T12:08:21;4.12;86.52
69546;SHT31;56766;52.260;20.746;2022-12-07T12:10:58;4.04;86.79
69546;SHT31;56766;52.260;20.746;2022-12-07T12:23:06;4.06;87.15
69546;SHT31;56766;52.260;20.746;2022-12-07T12:25:52;4.16;87.27
69546;SHT31;56766;52.260;20.746;2022-12-07T12:28:34;4.26;87.17
69546;SHT31;56766;52.260;20.746;2022-12-07T12:31:13;4.32;87.17
69546;SHT31;56766;52.260;20.746;2022-12-07T12:33:53;4.30;87.14
69546;SHT31;56766;52.260;20.746;2022-12-07T12:46:56;4.08;87.25
69546;SHT31;56766;52.260;20.746;2022-12-07T12:51:59;3.94;87.30
69546;SHT31;56766;52.260;20.746;2022-12-07T12:57:19;3.87;87.27
69546;SHT31;56766;52.260;20.746;2022-12-07T13:02:37;3.80;87.45
69546;SHT31;56766;52.260;20.746;2022-12-07T13:26:39;3.48;87.56
69546;SHT31;56766;52.260;20.746;2022-12-07T13:31:50;3.45;87.79
69546;SHT31;56766;52.260;20.746;2022-12-07T13:34:41;3.42;87.80
69546;SHT31;56766;52.260;20.746;2022-12-07T13:37:30;3.40;87.90
69546;SHT31;56766;52.260;20.746;2022-12-07T13:40:12;3.39;87.96
69546;SHT31;56766;52.260;20.746;2022-12-07T13:42:45;3.36;88.02
69546;SHT31;56766;52.260;20.746;2022-12-07T13:45:30;3.34;88.05
69546;SHT31;56766;52.260;20.746;2022-12-07T13:48:44;3.30;88.14
69546;SHT31;56766;52.260;20.746;2022-12-07T13:51:22;3.28;88.08
69546;SHT31;56766;52.260;20.746;2022-12-07T13:54:09;3.22;88.05
69546;SHT31;56766;52.260;20.746;2022-12-07T13:56:38;3.16;88.09
69546;SHT31;56766;52.260;20.746;2022-12-07T13:59:24;3.11;88.10
69546;SHT31;56766;52.260;20.746;2022-12-07T14:01:53;3.05;88.02
69546;SHT31;56766;52.260;20.746;2022-12-07T14:10:00;2.93;88.05
69546;SHT31;56766;52.260;20.746;2022-12-07T14:12:30;2.90;88.04
69546;SHT31;56766;52.260;20.746;2022-12-07T14:15:00;2.88;88.06
69546;SHT31;56766;52.260;20.746;2022-12-07T14:17:29;2.84;87.96
69546;SHT31;56766;52.260;20.746;2022-12-07T14:20:01;2.77;87.92
69546;SHT31;56766;52.260;20.746;2022-12-07T14:25:17;2.70;88.00
69546;SHT31;56766;52.260;20.746;2022-12-07T14:28:03;2.65;88.04
69546;SHT31;56766;52.260;20.746;2022-12-07T14:30:32;2.60;88.01
69546;SHT31;56766;52.260;20.746;2022-12-07T14:33:05;2.55;88.10
69546;SHT31;56766;52.260;20.746;2022-12-07T14:35:32;2.52;88.10
69546;SHT31;56766;52.260;20.746;2022-12-07T14:37:59;2.47;88.11
69546;SHT31;56766;52.260;20.746;2022-12-07T14:40:28;2.42;88.11
69546;SHT31;56766;52.260;20.746;2022-12-07T14:43:00;2.37;88.20
69546;SHT31;56766;52.260;20.746;2022-12-07T14:45:31;2.35;88.30
69546;SHT31;56766;52.260;20.746;2022-12-07T14:47:57;2.33;88.30
69546;SHT31;56766;52.260;20.746;2022-12-07T14:50:24;2.26;88.25
69546;SHT31;56766;52.260;20.746;2022-12-07T14:52:55;2.24;88.42
69546;SHT31;56766;52.260;20.746;2022-12-07T14:55:30;2.23;88.50
69546;SHT31;56766;52.260;20.746;2022-12-07T14:57:58;2.23;88.56
69546;SHT31;56766;52.260;20.746;2022-12-07T15:00:27;2.24;88.58
69546;SHT31;56766;52.260;20.746;2022-12-07T15:02:55;2.23;88.61
69546;SHT31;56766;52.260;20.746;2022-12-07T15:05:22;2.26;88.78
69546;SHT31;56766;52.260;20.746;2022-12-07T15:07:50;2.25;88.71
69546;SHT31;56766;52.260;20.746;2022-12-07T15:10:24;2.25;88.77
69546;SHT31;56766;52.260;20.746;2022-12-07T15:12:58;2.23;88.75
69546;SHT31;56766;52.260;20.746;2022-12-07T15:15:46;2.22;88.86
69546;SHT31;56766;52.260;20.746;2022-12-07T15:18:17;2.21;88.95
69546;SHT31;56766;52.260;20.746;2022-12-07T15:20:45;2.20;89.02
69546;SHT31;56766;52.260;20.746;2022-12-07T15:23:12;2.20;89.09
69546;SHT31;56766;52.260;20.746;2022-12-07T15:25:45;2.21;89.19
69546;SHT31;56766;52.260;20.746;2022-12-07T15:28:14;2.22;89.21
69546;SHT31;56766;52.260;20.746;2022-12-07T15:30:42;2.22;89.26
69546;SHT31;56766;52.260;20.746;2022-12-07T15:33:12;2.24;89.31
69546;SHT31;56766;52.260;20.746;2022-12-07T15:35:44;2.28;89.39
69546;SHT31;56766;52.260;20.746;2022-12-07T15:38:12;2.29;89.40
69546;SHT31;56766;52.260;20.746;2022-12-07T15:40:40;2.29;89.40
69546;SHT31;56766;52.260;20.746;2022-12-07T15:43:10;2.29;89.47
69546;SHT31;56766;52.260;20.746;2022-12-07T15:45:57;2.32;89.50
69546;SHT31;56766;52.260;20.746;2022-12-07T15:48:23;2.31;89.53
69546;SHT31;56766;52.260;20.746;2022-12-07T15:50:50;2.32;89.59
69546;SHT31;56766;52.260;20.746;2022-12-07T15:53:17;2.33;89.68
69546;SHT31;56766;52.260;20.746;2022-12-07T15:55:44;2.36;89.76
69546;SHT31;56766;52.260;20.746;2022-12-07T15:58:10;2.39;89.78
69546;SHT31;56766;52.260;20.746;2022-12-07T16:00:37;2.39;89.79
69546;SHT31;56766;52.260;20.746;2022-12-07T16:03:03;2.42;89.80
69546;SHT31;56766;52.260;20.746;2022-12-07T16:05:30;2.43;89.80
69546;SHT31;56766;52.260;20.746;2022-12-07T16:07:57;2.44;89.80
69546;SHT31;56766;52.260;20.746;2022-12-07T16:10:23;2.45;89.79
69546;SHT31;56766;52.260;20.746;2022-12-07T16:12:50;2.47;89.82
69546;SHT31;56766;52.260;20.746;2022-12-07T16:15:17;2.48;89.84
69546;SHT31;56766;52.260;20.746;2022-12-07T16:17:44;2.45;89.73
69546;SHT31;56766;52.260;20.746;2022-12-07T16:20:11;2.46;89.77
69546;SHT31;56766;52.260;20.746;2022-12-07T16:22:38;2.46;89.80
69546;SHT31;56766;52.260;20.746;2022-12-07T16:25:04;2.46;89.80
69546;SHT31;56766;52.260;20.746;2022-12-07T16:27:31;2.48;89.82
69546;SHT31;56766;52.260;20.746;2022-12-07T16:29:58;2.49;89.89
69546;SHT31;56766;52.260;20.746;2022-12-07T16:32:25;2.51;89.90
69546;SHT31;56766;52.260;20.746;2022-12-07T16:34:52;2.54;89.90
69546;SHT31;56766;52.260;20.746;2022-12-07T16:37:18;2.55;89.89
69546;SHT31;56766;52.260;20.746;2022-12-07T16:39:45;2.56;89.88
69546;SHT31;56766;52.260;20.746;2022-12-07T16:42:12;2.56;89.81
69546;SHT31;56766;52.260;20.746;2022-12-07T16:44:38;2.56;89.84
69546;SHT31;56766;52.260;20.746;2022-12-07T16:47:06;2.59;89.90
69546;SHT31;56766;52.260;20.746;2022-12-07T16:49:33;2.60;89.90
69546;SHT31;56766;52.260;20.746;2022-12-07T16:52:00;2.60;89.88
69546;SHT31;56766;52.260;20.746;2022-12-07T16:54:26;2.59;89.90
69546;SHT31;56766;52.260;20.746;2022-12-07T16:56:57;2.60;89.90
69546;SHT31;56766;52.260;20.746;2022-12-07T16:59:23;2.59;89.85
69546;SHT31;56766;52.260;20.746;2022-12-07T17:01:50;2.58;89.86
69546;SHT31;56766;52.260;20.746;2022-12-07T17:04:18;2.61;89.88
69546;SHT31;56766;52.260;20.746;2022-12-07T17:06:44;2.60;89.82
69546;SHT31;56766;52.260;20.746;2022-12-07T17:09:11;2.60;89.83
69546;SHT31;56766;52.260;20.746;2022-12-07T17:11:38;2.60;89.85
69546;SHT31;56766;52.260;20.746;2022-12-07T17:14:04;2.62;89.90
69546;SHT31;56766;52.260;20.746;2022-12-07T17:16:50;2.62;89.90
69546;SHT31;56766;52.260;20.746;2022-12-07T17:19:17;2.64;89.89
69546;SHT31;56766;52.260;20.746;2022-12-07T17:21:44;2.65;89.82
69546;SHT31;56766;52.260;20.746;2022-12-07T17:24:16;2.66;89.82
69546;SHT31;56766;52.260;20.746;2022-12-07T17:26:45;2.68;89.86
69546;SHT31;56766;52.260;20.746;2022-12-07T17:29:15;2.69;89.79
69546;SHT31;56766;52.260;20.746;2022-12-07T17:31:44;2.67;89.71
69546;SHT31;56766;52.260;20.746;2022-12-07T17:34:14;2.66;89.69
69546;SHT31;56766;52.260;20.746;2022-12-07T17:36:42;2.61;89.61
69546;SHT31;56766;52.260;20.746;2022-12-07T17:39:10;2.58;89.68
69546;SHT31;56766;52.260;20.746;2022-12-07T17:41:39;2.58;89.74
69546;SHT31;56766;52.260;20.746;2022-12-07T17:44:27;2.55;89.79
69546;SHT31;56766;52.260;20.746;2022-12-07T17:46:55;2.54;89.86
69546;SHT31;56766;52.260;20.746;2022-12-07T17:49:25;2.54;89.89
69546;SHT31;56766;52.260;20.746;2022-12-07T17:51:53;2.53;89.90
69546;SHT31;56766;52.260;20.746;2022-12-07T17:54:39;2.54;89.96
69546;SHT31;56766;52.260;20.746;2022-12-07T17:57:06;2.58;90.10
69546;SHT31;56766;52.260;20.746;2022-12-07T17:59:33;2.61;90.10
69546;SHT31;56766;52.260;20.746;2022-12-07T18:02:00;2.65;90.12
69546;SHT31;56766;52.260;20.746;2022-12-07T18:04:26;2.66;90.00